createdAt,value
2019-01-25T00:02:00.160Z,94871.00
2019-01-25T00:04:30.370Z,94867.00
2019-01-25T00:07:00.399Z,94878.00
2019-01-25T00:09:30.438Z,94879.00
2019-01-25T00:12:00.516Z,94875.00
2019-01-25T00:14:31.526Z,94884.00
2019-01-25T00:17:01.788Z,94861.00
2019-01-25T00:19:31.921Z,94869.00
2019-01-25T00:22:02.015Z,94876.00
2019-01-25T00:24:32.024Z,94880.00
2019-01-25T00:27:02.077Z,94866.00
2019-01-25T00:29:32.213Z,94871.00
2019-01-25T00:32:02.195Z,94870.00
2019-01-25T00:34:32.289Z,94877.00
2019-01-25T00:37:02.723Z,94872.00
2019-01-25T00:39:32.672Z,94871.00
2019-01-25T00:42:02.710Z,94878.00
2019-01-25T00:44:34.044Z,94882.00
2019-01-25T00:47:04.017Z,94885.00
2019-01-25T00:49:34.392Z,94882.00
2019-01-25T00:52:04.427Z,94887.00
2019-01-25T00:54:34.515Z,94884.00
2019-01-25T00:57:04.851Z,94890.00
2019-01-25T00:59:34.820Z,94900.00
2019-01-25T01:02:05.072Z,94880.00
2019-01-25T01:04:35.144Z,94895.00
2019-01-25T01:07:05.430Z,94893.00
2019-01-25T01:09:35.582Z,94908.00
2019-01-25T01:12:05.661Z,94917.00
2019-01-25T01:14:35.656Z,94911.00
2019-01-25T01:17:05.788Z,94913.00
2019-01-25T01:19:35.681Z,94920.00
2019-01-25T01:22:06.128Z,94917.00
2019-01-25T01:24:36.073Z,94917.00
2019-01-25T01:27:06.309Z,94904.00
2019-01-25T01:29:36.315Z,94904.00
2019-01-25T01:32:06.647Z,94915.00
2019-01-25T01:34:37.416Z,94916.00
2019-01-25T01:37:07.538Z,94941.00
2019-01-25T01:39:37.493Z,94945.00
2019-01-25T01:42:07.488Z,94937.00
2019-01-25T01:44:37.499Z,94933.00
2019-01-25T01:47:07.573Z,94935.00
2019-01-25T01:49:37.522Z,94936.00
2019-01-25T01:52:07.574Z,94932.00
2019-01-25T01:54:37.491Z,94923.00
2019-01-25T01:57:07.503Z,94928.00
2019-01-25T01:59:37.433Z,94929.00
2019-01-25T02:02:07.676Z,94929.00
2019-01-25T02:04:37.648Z,94918.00
2019-01-25T02:07:07.805Z,94924.00
2019-01-25T02:09:37.814Z,94924.00
2019-01-25T02:12:07.858Z,94933.00
2019-01-25T02:14:37.939Z,94931.00
2019-01-25T02:17:09.228Z,94939.00
2019-01-25T02:19:39.144Z,94932.00
2019-01-25T02:22:09.274Z,94934.00
2019-01-25T02:24:39.289Z,94939.00
2019-01-25T02:27:09.336Z,94928.00
2019-01-25T02:29:39.242Z,94933.00
2019-01-25T02:32:09.315Z,94928.00
2019-01-25T02:34:39.267Z,94934.00
2019-01-25T02:37:09.164Z,94935.00
2019-01-25T02:39:39.183Z,94934.00
2019-01-25T02:42:11.707Z,94929.00
2019-01-25T02:44:41.603Z,94936.00
2019-01-25T02:47:11.512Z,94929.00
2019-01-25T02:49:41.609Z,94929.00
2019-01-25T02:52:11.679Z,94931.00
2019-01-25T02:54:41.613Z,94937.00
2019-01-25T02:57:11.608Z,94933.00
2019-01-25T02:59:41.587Z,94935.00
2019-01-25T03:02:11.671Z,94950.00
2019-01-25T03:04:41.719Z,94951.00
2019-01-25T03:07:12.764Z,94946.00
2019-01-25T03:09:42.665Z,94942.00
2019-01-25T03:12:12.736Z,94959.00
2019-01-25T03:14:42.738Z,94953.00
2019-01-25T03:17:12.670Z,94954.00
2019-01-25T03:19:42.641Z,94959.00
2019-01-25T03:22:12.675Z,94957.00
2019-01-25T03:24:42.845Z,94962.00
2019-01-25T03:27:12.900Z,94949.00
2019-01-25T03:29:42.927Z,94952.00
2019-01-25T03:32:12.949Z,94956.00
2019-01-25T03:34:42.957Z,94977.00
2019-01-25T03:37:12.913Z,94960.00
2019-01-25T03:39:42.806Z,94968.00
2019-01-25T03:42:12.889Z,94968.00
2019-01-25T03:44:42.952Z,94967.00
2019-01-25T03:47:12.958Z,94974.00
2019-01-25T03:49:44.043Z,94985.00
2019-01-25T03:52:14.071Z,94974.00
2019-01-25T03:54:44.059Z,94974.00
2019-01-25T03:57:14.030Z,94982.00
2019-01-25T03:59:43.980Z,94979.00
2019-01-25T04:02:13.889Z,94976.00
2019-01-25T04:04:43.859Z,94980.00
2019-01-25T04:07:14.034Z,94997.00
2019-01-25T04:09:43.926Z,94984.00
2019-01-25T04:12:14.029Z,94995.00
2019-01-25T04:14:44.157Z,94984.00
2019-01-25T04:17:14.090Z,94983.00
2019-01-25T04:19:44.218Z,94968.00
2019-01-25T04:22:14.261Z,94990.00
2019-01-25T04:24:44.403Z,94992.00
2019-01-25T04:27:14.342Z,94991.00
2019-01-25T04:29:44.294Z,94991.00
2019-01-25T04:32:14.383Z,94988.00
2019-01-25T04:34:44.461Z,95008.00
2019-01-25T04:37:14.429Z,94987.00
2019-01-25T04:39:45.884Z,94988.00
2019-01-25T04:42:15.952Z,94991.00
2019-01-25T04:44:45.909Z,94996.00
2019-01-25T04:47:17.543Z,94990.00
2019-01-25T04:49:47.473Z,94989.00
2019-01-25T04:52:18.552Z,95006.00
2019-01-25T04:54:48.481Z,94991.00
2019-01-25T04:57:18.739Z,94987.00
2019-01-25T04:59:48.733Z,94998.00
2019-01-25T05:02:18.639Z,94984.00
2019-01-25T05:04:49.952Z,94993.00
2019-01-25T05:07:20.077Z,94997.00
2019-01-25T05:09:50.073Z,95008.00
2019-01-25T05:12:20.160Z,95018.00
2019-01-25T05:14:50.104Z,94994.00
2019-01-25T05:17:20.147Z,94995.00
2019-01-25T05:19:50.085Z,95006.00
2019-01-25T05:22:20.072Z,95007.00
2019-01-25T05:24:49.998Z,95006.00
2019-01-25T05:27:20.026Z,95004.00
2019-01-25T05:29:55.769Z,95007.00
2019-01-25T05:32:25.874Z,95025.00
2019-01-25T05:34:55.917Z,95005.00
2019-01-25T05:37:25.871Z,95008.00
2019-01-25T05:39:55.852Z,95010.00
2019-01-25T05:42:25.947Z,95021.00
2019-01-25T05:44:56.008Z,95020.00
2019-01-25T05:47:25.936Z,95025.00
2019-01-25T05:49:55.869Z,95006.00
2019-01-25T05:52:26.002Z,95022.00
2019-01-25T05:54:56.552Z,95022.00
2019-01-25T05:57:26.577Z,95023.00
2019-01-25T05:59:56.507Z,95024.00
2019-01-25T06:02:26.634Z,95022.00
2019-01-25T06:04:56.699Z,95026.00
2019-01-25T06:07:29.195Z,95036.00
2019-01-25T06:09:59.422Z,95029.00
2019-01-25T06:12:29.384Z,95038.00
2019-01-25T06:14:59.496Z,95042.00
2019-01-25T06:17:29.537Z,95047.00
2019-01-25T06:19:59.590Z,95041.00
2019-01-25T06:22:29.687Z,95056.00
2019-01-25T06:24:59.665Z,95055.00
2019-01-25T06:27:32.083Z,95045.00
2019-01-25T06:30:02.026Z,95056.00
2019-01-25T06:32:32.150Z,95054.00
2019-01-25T06:35:02.065Z,95046.00
2019-01-25T06:37:32.057Z,95065.00
2019-01-25T06:40:02.143Z,95053.00
2019-01-25T06:42:32.130Z,95062.00
2019-01-25T06:45:02.129Z,95071.00
2019-01-25T06:47:32.023Z,95063.00
2019-01-25T06:50:02.014Z,95068.00
2019-01-25T06:52:32.171Z,95072.00
2019-01-25T06:55:02.069Z,95063.00
2019-01-25T06:57:51.789Z,95059.00
2019-01-25T07:00:24.222Z,95074.00
2019-01-25T07:02:54.338Z,95075.00
2019-01-25T07:05:24.379Z,95071.00
2019-01-25T07:07:54.304Z,95083.00
2019-01-25T07:10:24.630Z,95078.00
2019-01-25T07:12:55.048Z,95088.00
2019-01-25T07:15:25.513Z,95090.00
2019-01-25T07:17:55.427Z,95084.00
2019-01-25T07:20:26.827Z,95077.00
2019-01-25T07:22:57.080Z,95071.00
2019-01-25T07:25:27.113Z,95078.00
2019-01-25T07:27:57.129Z,95090.00
2019-01-25T07:30:27.126Z,95086.00
2019-01-25T07:32:57.219Z,95087.00
2019-01-25T07:35:27.218Z,95095.00
2019-01-25T07:37:58.449Z,95104.00
2019-01-25T07:40:28.729Z,95089.00
2019-01-25T07:42:58.936Z,95110.00
2019-01-25T07:45:30.073Z,95098.00
2019-01-25T07:48:01.279Z,95112.00
2019-01-25T07:50:31.561Z,95097.00
2019-01-25T07:53:01.627Z,95100.00
2019-01-25T07:55:31.652Z,95104.00
2019-01-25T07:58:01.693Z,95111.00
2019-01-25T08:00:31.870Z,95112.00
2019-01-25T08:03:01.918Z,95101.00
2019-01-25T08:05:32.017Z,95111.00
2019-01-25T08:08:02.038Z,95111.00
2019-01-25T08:10:33.206Z,95124.00
2019-01-25T08:13:03.409Z,95141.00
2019-01-25T08:15:33.623Z,95134.00
2019-01-25T08:18:03.617Z,95144.00
2019-01-25T08:20:34.001Z,95139.00
2019-01-25T08:23:04.115Z,95139.00
2019-01-25T08:25:34.133Z,95133.00
2019-01-25T08:28:04.425Z,95122.00
2019-01-25T08:30:34.601Z,95136.00
2019-01-25T08:33:04.637Z,95143.00
2019-01-25T08:35:34.740Z,95153.00
2019-01-25T08:38:06.553Z,95150.00
2019-01-25T08:40:36.816Z,95136.00
2019-01-25T08:43:08.875Z,95142.00
2019-01-25T08:45:38.612Z,95157.00
2019-01-25T08:48:08.847Z,95149.00
2019-01-25T08:50:39.001Z,95151.00
2019-01-25T08:53:10.229Z,95146.00
2019-01-25T08:55:40.293Z,95151.00
2019-01-25T08:58:10.378Z,95157.00
2019-01-25T09:00:40.384Z,95157.00
2019-01-25T09:03:10.476Z,95153.00
2019-01-25T09:05:40.621Z,95152.00
2019-01-25T09:08:10.763Z,95156.00
2019-01-25T09:10:40.768Z,95154.00
2019-01-25T09:13:10.763Z,95153.00
2019-01-25T09:15:40.679Z,95165.00
2019-01-25T09:18:10.849Z,95160.00
2019-01-25T09:20:40.863Z,95163.00
2019-01-25T09:23:10.833Z,95163.00
2019-01-25T09:25:40.812Z,95158.00
2019-01-25T09:28:10.872Z,95158.00
2019-01-25T09:30:41.025Z,95168.00
2019-01-25T09:33:11.163Z,95157.00
2019-01-25T09:35:41.368Z,95169.00
2019-01-25T09:38:11.392Z,95168.00
2019-01-25T09:40:41.508Z,95163.00
2019-01-25T09:43:11.517Z,95157.00
2019-01-25T09:45:41.724Z,95175.00
2019-01-25T09:48:11.935Z,95167.00
2019-01-25T09:50:42.114Z,95177.00
2019-01-25T09:53:12.390Z,95174.00
2019-01-25T09:55:42.491Z,95167.00
2019-01-25T09:58:15.788Z,95172.00
2019-01-25T10:00:55.350Z,95190.00
2019-01-25T10:03:25.278Z,95172.00
2019-01-25T10:05:55.476Z,95173.00
2019-01-25T10:08:25.444Z,95190.00
2019-01-25T10:10:55.671Z,95185.00
2019-01-25T10:13:25.758Z,95192.00
2019-01-25T10:15:55.814Z,95193.00
2019-01-25T10:18:25.937Z,95197.00
2019-01-25T10:20:56.008Z,95198.00
2019-01-25T10:23:25.937Z,95191.00
2019-01-25T10:25:55.850Z,95197.00
2019-01-25T10:28:25.875Z,95201.00
2019-01-25T10:30:55.846Z,95204.00
2019-01-25T10:33:26.012Z,95219.00
2019-01-25T10:35:56.056Z,95207.00
2019-01-25T10:38:26.041Z,95197.00
2019-01-25T10:40:55.931Z,95193.00
2019-01-25T10:43:27.594Z,95203.00
2019-01-25T10:45:57.571Z,95191.00
2019-01-25T10:48:27.565Z,95185.00
2019-01-25T10:51:00.027Z,95181.00
2019-01-25T10:53:30.131Z,95180.00
2019-01-25T10:56:00.142Z,95182.00
2019-01-25T10:58:30.342Z,95174.00
2019-01-25T11:01:00.493Z,95174.00
2019-01-25T11:03:30.791Z,95177.00
2019-01-25T11:06:00.954Z,95182.00
2019-01-25T11:08:30.951Z,95191.00
2019-01-25T11:11:01.074Z,95185.00
2019-01-25T11:13:31.433Z,95176.00
2019-01-25T11:16:01.514Z,95174.00
2019-01-25T11:18:31.680Z,95183.00
2019-01-25T11:21:01.763Z,95163.00
2019-01-25T11:23:31.907Z,95180.00
2019-01-25T11:26:02.160Z,95175.00
2019-01-25T11:28:32.290Z,95180.00
2019-01-25T11:31:02.877Z,95178.00
2019-01-25T11:33:34.181Z,95173.00
2019-01-25T11:36:04.487Z,95160.00
2019-01-25T11:38:34.453Z,95154.00
2019-01-25T11:41:04.890Z,95167.00
2019-01-25T11:43:34.948Z,95168.00
2019-01-25T11:46:05.102Z,95170.00
2019-01-25T11:48:35.195Z,95172.00
2019-01-25T11:51:05.322Z,95166.00
2019-01-25T11:53:35.449Z,95185.00
2019-01-25T11:56:05.635Z,95185.00
2019-01-25T11:58:36.328Z,95170.00
2019-01-25T12:01:08.069Z,95175.00
2019-01-25T12:03:38.387Z,95191.00
2019-01-25T12:06:08.454Z,95179.00
2019-01-25T12:08:38.686Z,95187.00
2019-01-25T12:11:08.958Z,95181.00
2019-01-25T12:13:39.112Z,95169.00
2019-01-25T12:16:09.143Z,95184.00
2019-01-25T12:18:39.488Z,95178.00
2019-01-25T12:21:09.614Z,95169.00
2019-01-25T12:23:44.364Z,95171.00
2019-01-25T12:26:14.856Z,95168.00
2019-01-25T12:28:45.112Z,95178.00
2019-01-25T12:31:15.129Z,95172.00
2019-01-25T12:33:45.492Z,95162.00
2019-01-25T12:36:15.430Z,95170.00
2019-01-25T12:38:50.558Z,95160.00
2019-01-25T12:41:21.222Z,95166.00
2019-01-25T12:43:51.506Z,95157.00
2019-01-25T12:46:21.387Z,95170.00
2019-01-25T12:48:51.483Z,95167.00
2019-01-25T12:51:35.985Z,95159.00
2019-01-25T12:54:06.873Z,95185.00
2019-01-25T12:56:38.017Z,95176.00
2019-01-25T12:59:08.149Z,95182.00
2019-01-25T13:01:40.218Z,95184.00
2019-01-25T13:04:10.538Z,95179.00
2019-01-25T13:06:41.823Z,95182.00
2019-01-25T13:09:12.525Z,95182.00
2019-01-25T13:11:42.701Z,95179.00
2019-01-25T13:14:12.870Z,95184.00
2019-01-25T13:16:42.927Z,95179.00
2019-01-25T13:19:15.908Z,95170.00
2019-01-25T13:21:46.001Z,95173.00
2019-01-25T13:24:17.133Z,95196.00
2019-01-25T13:26:47.308Z,95205.00
2019-01-25T13:29:17.200Z,95193.00
2019-01-25T13:31:47.370Z,95195.00
2019-01-25T13:34:25.014Z,95201.00
2019-01-25T13:36:57.096Z,95190.00
2019-01-25T13:39:26.750Z,95201.00
2019-01-25T13:41:56.721Z,95192.00
2019-01-25T13:44:30.235Z,95203.00
2019-01-25T13:46:58.423Z,95202.00
2019-01-25T13:49:32.143Z,95187.00
2019-01-25T13:52:02.106Z,95188.00
2019-01-25T13:54:32.202Z,95182.00
2019-01-25T13:57:02.115Z,95191.00
2019-01-25T13:59:32.127Z,95205.00
2019-01-25T14:02:02.186Z,95201.00
2019-01-25T14:04:32.489Z,95206.00
2019-01-25T14:07:02.406Z,95198.00
2019-01-25T14:09:32.297Z,95202.00
2019-01-25T14:12:02.197Z,95190.00
2019-01-25T14:14:32.178Z,95174.00
2019-01-25T14:17:02.255Z,95184.00
2019-01-25T14:19:32.182Z,95194.00
2019-01-25T14:22:02.153Z,95189.00
2019-01-25T14:24:32.153Z,95195.00
2019-01-25T14:27:02.166Z,95208.00
2019-01-25T14:29:32.132Z,95216.00
2019-01-25T14:32:02.178Z,95208.00
2019-01-25T14:34:33.128Z,95218.00
2019-01-25T14:37:03.176Z,95223.00
2019-01-25T14:39:34.655Z,95234.00
2019-01-25T14:42:04.697Z,95221.00
2019-01-25T14:44:34.594Z,95217.00
2019-01-25T14:47:04.647Z,95205.00
2019-01-25T14:49:34.574Z,95208.00
2019-01-25T14:52:05.102Z,95221.00
2019-01-25T14:54:35.093Z,95214.00
2019-01-25T14:57:05.330Z,95225.00
2019-01-25T14:59:36.589Z,95237.00
2019-01-25T15:02:07.910Z,95230.00
2019-01-25T15:04:37.780Z,95253.00
2019-01-25T15:07:07.974Z,95243.00
2019-01-25T15:09:38.096Z,95250.00
2019-01-25T15:12:08.529Z,95239.00
2019-01-25T15:14:38.432Z,95253.00
2019-01-25T15:17:08.507Z,95248.00
2019-01-25T15:19:38.586Z,95265.00
2019-01-25T15:22:08.616Z,95246.00
2019-01-25T15:24:38.593Z,95255.00
2019-01-25T15:27:08.478Z,95254.00
2019-01-25T15:29:38.468Z,95245.00
2019-01-25T15:32:08.452Z,95254.00
2019-01-25T15:34:38.454Z,95261.00
2019-01-25T15:37:08.492Z,95255.00
2019-01-25T15:39:38.425Z,95266.00
2019-01-25T15:42:08.593Z,95259.00
2019-01-25T15:44:38.510Z,95250.00
2019-01-25T15:47:08.428Z,95257.00
2019-01-25T15:49:38.320Z,95249.00
2019-01-25T15:52:08.436Z,95247.00
2019-01-25T15:54:39.340Z,95251.00
2019-01-25T15:57:09.345Z,95252.00
2019-01-25T15:59:39.256Z,95251.00
2019-01-25T16:02:09.235Z,95269.00
2019-01-25T16:04:39.201Z,95262.00
2019-01-25T16:07:09.270Z,95267.00
2019-01-25T16:09:39.164Z,95267.00
2019-01-25T16:12:09.057Z,95283.00
2019-01-25T16:14:39.017Z,95277.00
2019-01-25T16:17:09.170Z,95269.00
2019-01-25T16:19:39.538Z,95288.00
2019-01-25T16:22:09.866Z,95295.00
2019-01-25T16:24:39.782Z,95279.00
2019-01-25T16:27:09.948Z,95282.00
2019-01-25T16:29:39.988Z,95285.00
2019-01-25T16:32:10.274Z,95281.00
2019-01-25T16:34:40.231Z,95281.00
2019-01-25T16:37:10.232Z,95286.00
2019-01-25T16:39:40.108Z,95282.00
2019-01-25T16:42:10.204Z,95288.00
2019-01-25T16:44:41.270Z,95284.00
2019-01-25T16:47:11.314Z,95284.00
2019-01-25T16:49:41.419Z,95286.00
2019-01-25T16:52:11.439Z,95281.00
2019-01-25T16:54:41.550Z,95268.00
2019-01-25T16:57:11.655Z,95265.00
2019-01-25T16:59:41.625Z,95269.00
2019-01-25T17:02:11.690Z,95272.00
2019-01-25T17:04:41.681Z,95291.00
2019-01-25T17:07:11.698Z,95281.00
2019-01-25T17:09:41.810Z,95271.00
2019-01-25T17:12:12.028Z,95283.00
2019-01-25T17:14:42.185Z,95269.00
2019-01-25T17:17:12.225Z,95281.00
2019-01-25T17:19:42.329Z,95278.00
2019-01-25T17:22:12.447Z,95278.00
2019-01-25T17:24:42.473Z,95279.00
2019-01-25T17:27:12.609Z,95286.00
2019-01-25T17:29:42.538Z,95282.00
2019-01-25T17:32:21.693Z,95293.00
2019-01-25T17:34:51.759Z,95286.00
2019-01-25T17:37:29.620Z,95283.00
2019-01-25T17:40:02.986Z,95283.00
2019-01-25T17:42:33.673Z,95291.00
2019-01-25T17:45:06.405Z,95282.00
2019-01-25T17:47:36.841Z,95285.00
2019-01-25T17:50:09.309Z,95285.00
2019-01-25T17:52:39.328Z,95275.00
2019-01-25T17:55:10.664Z,95281.00
2019-01-25T17:57:40.784Z,95292.00
2019-01-25T18:00:29.939Z,95297.00
2019-01-25T18:03:01.188Z,95284.00
2019-01-25T18:05:31.359Z,95283.00
2019-01-25T18:08:01.442Z,95297.00
2019-01-25T18:10:31.475Z,95282.00
2019-01-25T18:13:01.590Z,95286.00
2019-01-25T18:15:31.682Z,95300.00
2019-01-25T18:18:01.658Z,95296.00
2019-01-25T18:20:31.624Z,95295.00
2019-01-25T18:23:01.604Z,95302.00
2019-01-25T18:25:46.355Z,95287.00
2019-01-25T18:28:25.239Z,95310.00
2019-01-25T18:31:18.005Z,95289.00
2019-01-25T18:33:48.066Z,95297.00
2019-01-25T18:36:18.708Z,95304.00
2019-01-25T18:38:50.060Z,95303.00
2019-01-25T18:41:20.012Z,95290.00
2019-01-25T18:43:49.913Z,95291.00
2019-01-25T18:46:20.107Z,95290.00
2019-01-25T18:48:50.170Z,95313.00
2019-01-25T18:51:20.343Z,95306.00
2019-01-25T18:53:50.442Z,95304.00
2019-01-25T18:56:23.437Z,95297.00
2019-01-25T18:58:53.773Z,95288.00
2019-01-25T19:01:23.723Z,95287.00
2019-01-25T19:03:54.782Z,95297.00
2019-01-25T19:06:24.942Z,95311.00
2019-01-25T19:08:54.952Z,95306.00
2019-01-25T19:11:25.884Z,95324.00
2019-01-25T19:13:55.810Z,95320.00
2019-01-25T19:16:25.990Z,95323.00
2019-01-25T19:18:55.901Z,95325.00
2019-01-25T19:21:26.982Z,95332.00
2019-01-25T19:23:57.416Z,95328.00
2019-01-25T19:26:27.725Z,95325.00
2019-01-25T19:28:58.766Z,95335.00
2019-01-25T19:31:30.607Z,95333.00
2019-01-25T19:34:00.790Z,95340.00
2019-01-25T19:36:30.763Z,95334.00
2019-01-25T19:39:00.744Z,95342.00
2019-01-25T19:41:30.750Z,95345.00
2019-01-25T19:44:00.879Z,95343.00
2019-01-25T19:46:32.529Z,95353.00
2019-01-25T19:49:02.762Z,95338.00
2019-01-25T19:51:32.896Z,95325.00
2019-01-25T19:54:04.108Z,95342.00
2019-01-25T19:56:34.091Z,95332.00
2019-01-25T19:59:04.534Z,95332.00
2019-01-25T20:01:34.541Z,95348.00
2019-01-25T20:04:05.790Z,95328.00
2019-01-25T20:06:35.999Z,95335.00
2019-01-25T20:09:15.484Z,95334.00
2019-01-25T20:11:49.267Z,95329.00
2019-01-25T20:14:19.936Z,95329.00
2019-01-25T20:16:49.835Z,95342.00
2019-01-25T20:19:20.179Z,95351.00
2019-01-25T20:21:50.206Z,95345.00
2019-01-25T20:24:20.099Z,95330.00
2019-01-25T20:26:50.248Z,95328.00
2019-01-25T20:29:21.292Z,95323.00
2019-01-25T20:31:51.247Z,95324.00
2019-01-25T20:34:21.225Z,95333.00
2019-01-25T20:36:51.406Z,95310.00
2019-01-25T20:39:21.583Z,95312.00
2019-01-25T20:41:51.537Z,95306.00
2019-01-25T20:44:21.424Z,95313.00
2019-01-25T20:46:51.572Z,95328.00
2019-01-25T20:49:22.331Z,95327.00
2019-01-25T20:51:53.140Z,95332.00
2019-01-25T20:54:23.092Z,95316.00
2019-01-25T20:56:53.041Z,95320.00
2019-01-25T20:59:23.084Z,95314.00
2019-01-25T21:01:53.871Z,95321.00
2019-01-25T21:04:23.692Z,95334.00
2019-01-25T21:06:53.619Z,95324.00
2019-01-25T21:09:23.673Z,95305.00
2019-01-25T21:11:53.627Z,95314.00
2019-01-25T21:14:23.656Z,95295.00
2019-01-25T21:16:53.741Z,95301.00
2019-01-25T21:19:23.734Z,95329.00
2019-01-25T21:21:53.780Z,95314.00
2019-01-25T21:24:23.850Z,95318.00
2019-01-25T21:26:53.938Z,95311.00
2019-01-25T21:29:23.881Z,95314.00
2019-01-25T21:31:53.803Z,95301.00
2019-01-25T21:34:23.833Z,95275.00
2019-01-25T21:36:53.919Z,95279.00
2019-01-25T21:39:23.943Z,95289.00
2019-01-25T21:41:54.026Z,95289.00
2019-01-25T21:44:24.073Z,95284.00
2019-01-25T21:46:54.006Z,95271.00
2019-01-25T21:49:23.922Z,95276.00
2019-01-25T21:51:55.020Z,95272.00
2019-01-25T21:54:24.959Z,95261.00
2019-01-25T21:56:55.013Z,95281.00
2019-01-25T21:59:25.033Z,95276.00
2019-01-25T22:01:55.156Z,95269.00
2019-01-25T22:04:25.373Z,95254.00
2019-01-25T22:06:55.486Z,95259.00
2019-01-25T22:09:25.604Z,95245.00
2019-01-25T22:11:55.688Z,95249.00
2019-01-25T22:14:25.665Z,95260.00
2019-01-25T22:16:56.129Z,95254.00
2019-01-25T22:19:26.264Z,95257.00
2019-01-25T22:21:56.245Z,95256.00
2019-01-25T22:24:26.315Z,95266.00
2019-01-25T22:26:56.311Z,95262.00
2019-01-25T22:29:26.271Z,95256.00
2019-01-25T22:31:56.385Z,95253.00
2019-01-25T22:34:26.315Z,95253.00
2019-01-25T22:36:56.400Z,95252.00
2019-01-25T22:39:26.574Z,95265.00
2019-01-25T22:41:57.877Z,95259.00
2019-01-25T22:44:27.862Z,95249.00
2019-01-25T22:46:57.878Z,95258.00
2019-01-25T22:49:27.970Z,95250.00
2019-01-25T22:51:57.893Z,95224.00
2019-01-25T22:54:28.083Z,95222.00
2019-01-25T22:56:58.043Z,95217.00
2019-01-25T22:59:28.273Z,95224.00
2019-01-25T23:01:58.779Z,95217.00
2019-01-25T23:05:18.685Z,95235.00
2019-01-25T23:07:48.666Z,95221.00
2019-01-25T23:10:21.456Z,95239.00
2019-01-25T23:12:51.549Z,95219.00
2019-01-25T23:15:21.721Z,95227.00
2019-01-25T23:17:51.695Z,95231.00
2019-01-25T23:20:21.739Z,95206.00
2019-01-25T23:22:51.652Z,95208.00
2019-01-25T23:25:21.687Z,95212.00
2019-01-25T23:27:53.264Z,95213.00
2019-01-25T23:30:23.442Z,95216.00
2019-01-25T23:32:53.370Z,95207.00
2019-01-25T23:35:24.028Z,95183.00
2019-01-25T23:37:54.052Z,95201.00
2019-01-25T23:40:24.171Z,95195.00
2019-01-25T23:42:54.190Z,95204.00
2019-01-25T23:45:24.427Z,95188.00
2019-01-25T23:47:54.557Z,95194.00
2019-01-25T23:50:24.702Z,95188.00
2019-01-25T23:52:54.613Z,95182.00
2019-01-25T23:55:24.489Z,95170.00
2019-01-25T23:57:54.372Z,95172.00
